Time;durP1;ratioP1;P1;durP2;ratioP2;P2;SDS_P1;SDS_P2;PMS_P1;PMS_P2;Temp;Humidity;BMP_temperature;BMP_pressure;BME280_temperature;BME280_humidity;BME280_pressure;Samples;Min_cycle;Max_cycle;Signal;HPM_P1;HPM_P2
2023/05/24 00:01:06;;;;;;;11.68;3.35;;;;;;;11.63;100.00;101259.22;4919035;29;20061;-76
2023/05/24 00:03:33;;;;;;;10.00;3.10;;;;;;;11.64;100.00;101258.09;4915499;29;20056;-76
2023/05/24 00:06:05;;;;;;;14.05;3.55;;;;;;;11.60;100.00;101263.41;4935015;29;20036;-76
2023/05/24 00:08:31;;;;;;;12.45;3.05;;;;;;;11.56;100.00;101267.00;4904272;29;20044;-76
2023/05/24 00:10:57;;;;;;;12.80;3.45;;;;;;;11.52;100.00;101263.16;4935141;29;20032;-76
2023/05/24 00:13:23;;;;;;;12.50;3.38;;;;;;;11.48;100.00;101248.13;4919307;29;20031;-76
2023/05/24 00:15:48;;;;;;;13.57;3.22;;;;;;;11.42;100.00;101241.72;4934943;29;20032;-76
2023/05/24 00:18:16;;;;;;;12.60;3.25;;;;;;;11.38;100.00;101255.38;4918984;29;20032;-76
2023/05/24 00:20:42;;;;;;;15.05;3.38;;;;;;;11.34;100.00;101245.94;4919410;29;20111;-76
2023/05/24 00:23:08;;;;;;;11.57;3.08;;;;;;;11.32;100.00;101241.78;4934612;29;20055;-75
2023/05/24 00:25:33;;;;;;;12.98;3.50;;;;;;;11.25;100.00;101242.06;4920233;29;20032;-76
2023/05/24 00:27:59;;;;;;;11.40;3.45;;;;;;;11.22;100.00;101241.78;4919018;29;20087;-76
2023/05/24 00:30:25;;;;;;;11.65;3.20;;;;;;;11.21;100.00;101238.19;4915690;29;20043;-76
2023/05/24 00:32:50;;;;;;;10.50;3.53;;;;;;;11.15;100.00;101230.97;4934715;28;20035;-76
2023/05/24 00:35:16;;;;;;;13.05;3.45;;;;;;;11.13;100.00;101225.69;4934545;29;20450;-76
2023/05/24 00:37:43;;;;;;;10.63;3.70;;;;;;;11.11;100.00;101213.16;4918609;29;20039;-76
2023/05/24 00:40:10;;;;;;;9.60;3.03;;;;;;;11.06;100.00;101216.81;4918808;29;20032;-76
2023/05/24 00:42:35;;;;;;;10.90;2.90;;;;;;;11.04;100.00;101215.41;4918577;29;20032;-76
2023/05/24 00:45:01;;;;;;;9.90;3.00;;;;;;;11.00;100.00;101214.28;4918467;29;20076;-76
2023/05/24 00:47:26;;;;;;;10.25;3.05;;;;;;;10.94;100.00;101219.03;4934757;28;20031;-76
2023/05/24 00:49:52;;;;;;;11.50;3.20;;;;;;;10.92;100.00;101210.13;4931362;29;20036;-76
2023/05/24 00:52:17;;;;;;;11.82;3.05;;;;;;;10.88;100.00;101215.41;4935018;29;20047;-76
2023/05/24 00:54:43;;;;;;;11.73;2.88;;;;;;;10.82;100.00;101216.53;4934481;29;20024;-76
2023/05/24 00:57:08;;;;;;;10.50;2.72;;;;;;;10.77;100.00;101221.25;4934305;29;20067;-76
2023/05/24 00:59:34;;;;;;;12.48;3.13;;;;;;;10.72;100.00;101224.88;4918475;29;20035;-76
2023/05/24 01:01:59;;;;;;;7.90;2.63;;;;;;;10.65;100.00;101224.31;4918756;29;20055;-75
2023/05/24 01:04:25;;;;;;;13.43;3.47;;;;;;;10.65;100.00;101221.56;4918699;29;20028;-76
2023/05/24 01:07:03;;;;;;;12.98;2.83;;;;;;;10.60;100.00;101232.66;4934617;28;20024;-76
2023/05/24 01:09:33;;;;;;;10.32;2.47;;;;;;;10.56;100.00;101229.59;4902532;29;20118;-76
2023/05/24 01:12:07;;;;;;;12.65;3.10;;;;;;;10.58;100.00;101219.03;4918440;29;20060;-75
2023/05/24 01:14:42;;;;;;;10.18;3.28;;;;;;;10.55;100.00;101216.81;4934109;29;20062;-76
2023/05/24 01:17:18;;;;;;;12.68;3.13;;;;;;;10.47;100.00;101212.66;4921488;29;20115;-76
2023/05/24 01:19:58;;;;;;;11.13;2.85;;;;;;;10.45;100.00;101205.72;4937948;29;20397;-75
2023/05/24 01:22:43;;;;;;;11.00;2.58;;;;;;;10.40;100.00;101203.75;4921699;29;20028;-76
2023/05/24 01:25:51;;;;;;;10.18;2.58;;;;;;;10.37;100.00;101207.09;4921344;29;20036;-76
2023/05/24 01:28:16;;;;;;;9.15;2.97;;;;;;;10.31;100.00;101199.00;4919949;29;20040;-75
2023/05/24 01:30:42;;;;;;;9.13;3.20;;;;;;;10.26;100.00;101202.59;4906340;29;20047;-76
2023/05/24 01:33:07;;;;;;;12.75;3.10;;;;;;;10.22;100.00;101202.31;4937666;28;20042;-76
2023/05/24 01:35:38;;;;;;;10.88;3.20;;;;;;;10.21;100.00;101205.34;4934643;29;20363;-75
2023/05/24 01:38:05;;;;;;;10.63;2.40;;;;;;;10.22;100.00;101204.22;4905701;29;20074;-76
2023/05/24 01:40:30;;;;;;;10.18;2.60;;;;;;;10.19;100.00;101202.00;4937529;29;20071;-76
2023/05/24 01:43:02;;;;;;;8.95;2.75;;;;;;;10.17;100.00;101198.66;4921725;29;20036;-76
2023/05/24 01:45:33;;;;;;;11.65;2.95;;;;;;;10.12;100.00;101207.00;4937382;29;20028;-76
2023/05/24 01:48:41;;;;;;;10.25;2.60;;;;;;;10.13;100.00;101211.44;4937326;29;20048;-76
2023/05/24 01:51:07;;;;;;;11.00;3.05;;;;;;;10.02;100.00;101214.19;4934554;29;20446;-76
2023/05/24 01:53:34;;;;;;;10.07;2.50;;;;;;;10.03;100.00;101224.19;4921784;29;20032;-76
2023/05/24 01:56:01;;;;;;;9.55;2.85;;;;;;;9.95;100.00;101223.88;4939009;29;20070;-76
2023/05/24 01:58:26;;;;;;;12.27;3.13;;;;;;;9.90;100.00;101229.41;4924747;29;20378;-76
2023/05/24 02:00:52;;;;;;;9.88;2.67;;;;;;;9.88;100.00;101221.34;4940285;29;20038;-76
2023/05/24 02:03:17;;;;;;;8.45;2.85;;;;;;;9.85;100.00;101221.91;4921258;29;20489;-76
2023/05/24 02:05:44;;;;;;;8.88;2.70;;;;;;;9.81;100.00;101216.06;4920569;29;20036;-76
2023/05/24 02:08:10;;;;;;;9.55;2.55;;;;;;;9.80;100.00;101211.59;4940106;29;20027;-76
2023/05/24 02:10:38;;;;;;;7.50;2.33;;;;;;;9.79;100.00;101211.91;4923860;29;20036;-75
2023/05/24 02:13:04;;;;;;;8.20;2.30;;;;;;;9.75;100.00;101219.06;4921193;29;20032;-76
2023/05/24 02:15:29;;;;;;;9.18;2.72;;;;;;;9.70;100.00;101217.13;4924142;29;20509;-76
2023/05/24 02:17:55;;;;;;;9.18;2.83;;;;;;;9.63;100.00;101216.53;4940117;29;20055;-76
2023/05/24 02:20:21;;;;;;;8.57;2.75;;;;;;;9.61;100.00;101214.06;4939834;29;20600;-76
2023/05/24 02:22:47;;;;;;;9.40;2.63;;;;;;;9.57;100.00;101214.84;4920807;29;20036;-76
2023/05/24 02:25:13;;;;;;;9.75;2.55;;;;;;;9.52;100.00;101221.19;4924283;29;20030;-75
2023/05/24 02:27:38;;;;;;;9.70;2.30;;;;;;;9.48;100.00;101222.84;4939658;29;20039;-76
2023/05/24 02:30:05;;;;;;;9.27;2.78;;;;;;;9.43;100.00;101217.28;4880556;29;20031;-76
2023/05/24 02:32:31;;;;;;;7.07;2.50;;;;;;;9.40;100.00;101229.75;4923766;29;20036;-76
2023/05/24 02:34:58;;;;;;;7.75;2.58;;;;;;;9.35;100.00;101226.94;4924014;29;20051;-76
2023/05/24 02:37:24;;;;;;;9.77;2.70;;;;;;;9.26;100.00;101236.88;4907914;29;20584;-75
2023/05/24 02:39:50;;;;;;;8.85;2.63;;;;;;;9.12;100.00;101244.81;4921706;29;20521;-76
2023/05/24 02:42:15;;;;;;;8.55;2.63;;;;;;;9.17;100.00;101230.16;4920606;29;20028;-76
2023/05/24 02:44:41;;;;;;;8.63;2.45;;;;;;;9.12;100.00;101232.91;4923789;29;20034;-76
2023/05/24 02:47:07;;;;;;;11.73;3.45;;;;;;;9.11;100.00;101240.38;4923952;29;20055;-75
2023/05/24 02:49:32;;;;;;;9.90;2.72;;;;;;;9.04;100.00;101239.75;4923522;29;20039;-75
2023/05/24 02:51:58;;;;;;;8.93;2.95;;;;;;;9.01;100.00;101242.25;4940212;29;20061;-76
2023/05/24 02:54:24;;;;;;;14.63;3.17;;;;;;;8.97;100.00;101241.09;4923200;29;20034;-76
2023/05/24 02:56:50;;;;;;;8.23;2.97;;;;;;;9.02;100.00;101239.19;4936034;29;20457;-76
2023/05/24 02:59:16;;;;;;;9.27;2.47;;;;;;;8.99;100.00;101239.72;4920329;29;20040;-76
2023/05/24 03:01:41;;;;;;;12.90;2.80;;;;;;;8.81;100.00;101242.91;4932848;29;20044;-75
2023/05/24 03:04:07;;;;;;;9.20;2.70;;;;;;;8.83;100.00;101240.69;4917519;29;20044;-75
2023/05/24 03:06:32;;;;;;;11.48;2.80;;;;;;;8.89;100.00;101234.13;4936065;29;20496;-75
2023/05/24 03:08:58;;;;;;;10.77;2.53;;;;;;;8.87;100.00;101233.53;4920085;29;20032;-75
2023/05/24 03:11:23;;;;;;;11.25;2.63;;;;;;;8.87;100.00;101239.09;4935978;29;20032;-75
2023/05/24 03:13:49;;;;;;;5.53;2.25;;;;;;;8.89;100.00;101240.50;4934588;28;20033;-75
2023/05/24 03:16:15;;;;;;;12.40;3.03;;;;;;;8.86;100.00;101238.25;4921155;29;20100;-76
2023/05/24 03:18:41;;;;;;;11.10;2.60;;;;;;;8.84;100.00;101236.84;4921125;29;20028;-76
2023/05/24 03:21:06;;;;;;;10.27;2.70;;;;;;;8.82;100.00;101225.19;4916763;29;20025;-76
2023/05/24 03:23:32;;;;;;;13.02;3.30;;;;;;;8.85;100.00;101232.97;4935669;29;20131;-76
2023/05/24 03:25:57;;;;;;;12.38;2.78;;;;;;;8.84;100.00;101228.53;4921341;29;20028;-76
2023/05/24 03:28:23;;;;;;;8.57;2.88;;;;;;;8.84;100.00;101223.81;4934846;29;20069;-76
2023/05/24 03:30:48;;;;;;;9.25;2.85;;;;;;;8.83;100.00;101224.94;4935656;29;20043;-76
2023/05/24 03:33:14;;;;;;;12.88;2.70;;;;;;;8.83;100.00;101227.72;4919342;29;20454;-75
2023/05/24 03:35:39;;;;;;;8.57;2.63;;;;;;;8.89;100.00;101239.66;4919622;29;20663;-76
2023/05/24 03:38:05;;;;;;;8.18;2.67;;;;;;;8.84;100.00;101243.22;4920083;29;20028;-76
2023/05/24 03:40:31;;;;;;;8.68;2.38;;;;;;;8.83;100.00;101235.16;4906930;29;20043;-76
2023/05/24 03:42:57;;;;;;;9.48;2.33;;;;;;;8.77;100.00;101233.47;4916625;29;20502;-76
2023/05/24 03:45:22;;;;;;;10.32;2.45;;;;;;;8.77;100.00;101231.50;4920616;29;20155;-76
2023/05/24 03:47:48;;;;;;;7.18;2.50;;;;;;;8.75;100.00;101232.88;4935477;29;20063;-76
2023/05/24 03:50:13;;;;;;;8.93;2.40;;;;;;;8.73;100.00;101227.63;4919351;29;20079;-76
2023/05/24 03:52:39;;;;;;;12.35;2.78;;;;;;;8.71;100.00;101224.28;4932396;29;20039;-76
2023/05/24 03:55:05;;;;;;;7.75;2.85;;;;;;;8.70;100.00;101228.97;4935188;29;20119;-75
2023/05/24 03:57:30;;;;;;;8.57;2.38;;;;;;;8.69;100.00;101227.31;4925128;29;20417;-76
2023/05/24 03:59:56;;;;;;;7.90;2.47;;;;;;;8.67;100.00;101232.28;4919300;29;20036;-75
2023/05/24 04:02:21;;;;;;;8.52;2.50;;;;;;;8.61;100.00;101233.34;4919268;29;20040;-75
2023/05/24 04:04:47;;;;;;;6.78;2.30;;;;;;;8.59;100.00;101243.00;4919221;29;20040;-76
2023/05/24 04:07:14;;;;;;;8.32;2.55;;;;;;;8.56;100.00;101241.59;4920303;29;20422;-76
2023/05/24 04:09:40;;;;;;;9.88;2.17;;;;;;;8.45;100.00;101237.88;4934818;29;20028;-75
2023/05/24 04:12:05;;;;;;;11.43;2.92;;;;;;;8.49;100.00;101240.97;4916078;29;20065;-75
2023/05/24 04:14:31;;;;;;;11.13;2.42;;;;;;;8.53;100.00;101239.34;4915929;29;20061;-76
2023/05/24 04:16:57;;;;;;;7.65;2.30;;;;;;;8.50;100.00;101237.13;4934695;29;20155;-76
2023/05/24 04:19:22;;;;;;;8.20;2.28;;;;;;;8.49;100.00;101236.25;4934850;29;20064;-76
2023/05/24 04:21:48;;;;;;;9.23;2.15;;;;;;;8.48;100.00;101245.66;4920050;29;20079;-76
2023/05/24 04:24:14;;;;;;;12.27;2.40;;;;;;;8.51;100.00;101244.31;4934709;29;20720;-76
2023/05/24 04:26:39;;;;;;;9.60;2.53;;;;;;;8.49;100.00;101240.97;4893192;29;20024;-76
2023/05/24 04:29:06;;;;;;;6.82;1.92;;;;;;;8.49;100.00;101241.78;4934703;29;20056;-76
2023/05/24 04:31:33;;;;;;;8.10;2.47;;;;;;;8.50;100.00;101248.19;4920083;29;20402;-76
2023/05/24 04:33:58;;;;;;;8.65;2.45;;;;;;;8.40;100.00;101242.53;4934722;29;20028;-76
2023/05/24 04:36:24;;;;;;;6.32;2.10;;;;;;;8.42;100.00;101235.66;4934706;29;20501;-76
2023/05/24 04:38:52;;;;;;;7.22;2.25;;;;;;;8.42;100.00;101234.81;4906024;29;20032;-76
2023/05/24 04:41:18;;;;;;;9.80;2.25;;;;;;;8.37;100.00;101237.50;4934413;29;20028;-76
2023/05/24 04:43:44;;;;;;;6.53;1.98;;;;;;;8.37;100.00;101235.56;4919967;29;20119;-76
2023/05/24 04:46:09;;;;;;;7.88;2.13;;;;;;;8.40;100.00;101234.25;4934254;29;20040;-76
2023/05/24 04:48:34;;;;;;;9.00;2.30;;;;;;;8.39;100.00;101233.41;4918913;29;20028;-76
2023/05/24 04:51:00;;;;;;;7.25;2.33;;;;;;;8.42;100.00;101241.19;4937847;29;20039;-76
2023/05/24 04:53:25;;;;;;;9.02;2.30;;;;;;;8.48;100.00;101236.53;4923392;29;20036;-75
2023/05/24 04:55:51;;;;;;;10.05;2.30;;;;;;;8.47;100.00;101238.47;4938381;29;20032;-75
2023/05/24 04:58:16;;;;;;;8.57;2.50;;;;;;;8.51;100.00;101247.06;4906671;29;20052;-75
2023/05/24 05:00:42;;;;;;;7.90;2.22;;;;;;;8.53;100.00;101246.84;4938322;29;20036;-75
2023/05/24 05:03:08;;;;;;;9.02;2.28;;;;;;;8.54;100.00;101242.94;4938230;29;20465;-76
2023/05/24 05:05:33;;;;;;;7.10;2.15;;;;;;;8.55;100.00;101231.59;4922431;29;20397;-76
2023/05/24 05:07:59;;;;;;;5.80;1.92;;;;;;;8.61;100.00;101241.66;4937773;29;20617;-76
2023/05/24 05:10:25;;;;;;;8.57;2.40;;;;;;;8.62;100.00;101237.78;4938128;29;20083;-76
2023/05/24 05:12:51;;;;;;;10.57;2.30;;;;;;;8.67;100.00;101248.91;4938103;29;20079;-76
2023/05/24 05:15:17;;;;;;;8.68;2.25;;;;;;;8.72;100.00;101248.13;4922083;29;20040;-76
2023/05/24 05:17:42;;;;;;;5.50;1.45;;;;;;;8.79;100.00;101247.88;4938207;29;20028;-76
2023/05/24 05:20:08;;;;;;;5.63;2.08;;;;;;;8.85;100.00;101246.81;4935186;29;20033;-76
2023/05/24 05:22:33;;;;;;;8.77;2.35;;;;;;;8.91;100.00;101248.53;4923055;29;20035;-76
2023/05/24 05:24:59;;;;;;;10.10;2.20;;;;;;;8.91;100.00;101245.75;4938112;29;20040;-76
2023/05/24 05:27:25;;;;;;;10.95;2.03;;;;;;;8.92;100.00;101251.03;4937785;29;20112;-76
2023/05/24 05:29:50;;;;;;;6.22;1.88;;;;;;;9.05;100.00;101257.22;4920036;29;20043;-76
2023/05/24 05:32:16;;;;;;;7.32;2.40;;;;;;;9.13;100.00;101253.97;4922147;29;20594;-76
2023/05/24 05:34:41;;;;;;;9.80;2.25;;;;;;;9.25;100.00;101249.06;4937409;29;20033;-76
2023/05/24 05:37:07;;;;;;;6.75;1.95;;;;;;;9.32;100.00;101248.81;4937676;29;20047;-76
2023/05/24 05:39:32;;;;;;;5.75;1.90;;;;;;;9.42;100.00;101257.22;4937687;29;20039;-76
2023/05/24 05:41:58;;;;;;;10.38;2.30;;;;;;;9.46;100.00;101263.88;4937510;29;20035;-76
2023/05/24 05:44:23;;;;;;;7.25;2.10;;;;;;;9.54;100.00;101257.00;4937717;29;20442;-76
2023/05/24 05:46:49;;;;;;;7.78;2.08;;;;;;;9.60;100.00;101265.06;4921485;29;20514;-76
2023/05/24 05:49:17;;;;;;;6.82;1.88;;;;;;;9.71;100.00;101263.19;4921773;29;20074;-76
2023/05/24 05:51:43;;;;;;;6.30;1.80;;;;;;;9.81;100.00;101254.09;4937045;29;20032;-76
2023/05/24 05:54:13;;;;;;;8.30;1.90;;;;;;;9.90;100.00;101266.31;4921418;29;20427;-76
2023/05/24 05:56:44;;;;;;;7.22;1.80;;;;;;;10.02;100.00;101269.69;4924216;29;20556;-76
2023/05/24 05:59:10;;;;;;;8.23;1.70;;;;;;;10.12;100.00;101266.13;4937743;29;20035;-76
2023/05/24 06:01:35;;;;;;;8.85;2.20;;;;;;;10.24;100.00;101260.31;4946508;28;20500;-76
2023/05/24 06:04:01;;;;;;;5.50;1.52;;;;;;;10.32;100.00;101261.78;4906198;29;20032;-76
2023/05/24 06:06:26;;;;;;;7.22;1.88;;;;;;;10.43;100.00;101264.28;4922569;29;20389;-76
2023/05/24 06:08:52;;;;;;;6.00;1.77;;;;;;;10.55;100.00;101258.47;4937033;29;20032;-76
2023/05/24 06:11:17;;;;;;;6.00;1.40;;;;;;;10.64;100.00;101261.53;4922418;29;20035;-76
2023/05/24 06:13:43;;;;;;;8.80;2.20;;;;;;;10.75;100.00;101265.97;4922198;29;20039;-76
2023/05/24 06:16:08;;;;;;;11.20;1.63;;;;;;;10.82;100.00;101266.56;4937035;28;20087;-76
2023/05/24 06:18:35;;;;;;;8.10;1.85;;;;;;;10.91;100.00;101264.06;4920943;29;20419;-76
2023/05/24 06:21:00;;;;;;;4.90;1.70;;;;;;;11.01;100.00;101266.00;4936644;29;20032;-76
2023/05/24 06:23:26;;;;;;;6.65;1.52;;;;;;;11.09;100.00;101259.91;4920657;29;20036;-76
2023/05/24 06:25:51;;;;;;;8.65;1.67;;;;;;;11.17;100.00;101262.06;4933659;29;20037;-76
2023/05/24 06:28:17;;;;;;;4.75;1.20;;;;;;;11.26;97.81;101271.53;4905032;29;20076;-76
2023/05/24 06:30:42;;;;;;;7.20;1.55;;;;;;;11.36;96.38;101257.59;4905037;29;20116;-77
2023/05/24 06:33:08;;;;;;;6.80;1.65;;;;;;;11.43;96.93;101265.66;4922105;29;20032;-77
2023/05/24 06:35:33;;;;;;;7.72;1.90;;;;;;;11.54;97.04;101260.91;4920620;29;20036;-77
2023/05/24 06:37:59;;;;;;;6.75;1.65;;;;;;;11.63;98.48;101260.03;4933254;29;20498;-77
2023/05/24 06:40:24;;;;;;;4.90;1.70;;;;;;;11.75;96.58;101256.94;4920339;29;20051;-75
2023/05/24 06:42:50;;;;;;;7.07;2.13;;;;;;;11.88;95.16;101257.50;4937208;28;20028;-77
2023/05/24 06:45:15;;;;;;;7.95;1.73;;;;;;;11.99;92.65;101261.91;4920477;29;20398;-77
2023/05/24 06:47:41;;;;;;;6.80;1.75;;;;;;;11.99;88.35;101261.91;4936575;29;20032;-77
2023/05/24 06:50:07;;;;;;;4.82;1.65;;;;;;;12.09;85.95;101267.44;4936339;29;20036;-77
2023/05/24 06:52:33;;;;;;;8.00;1.60;;;;;;;12.14;86.92;101264.59;4935774;29;20087;-78
2023/05/24 06:54:58;;;;;;;4.43;1.38;;;;;;;12.17;87.23;101271.56;4920283;29;20024;-77
2023/05/24 06:57:24;;;;;;;6.55;1.60;;;;;;;12.21;85.62;101279.06;4932533;29;20063;-77
2023/05/24 06:59:49;;;;;;;7.53;1.80;;;;;;;12.28;82.97;101279.56;4923251;29;20035;-77
2023/05/24 07:02:16;;;;;;;7.22;1.63;;;;;;;12.38;82.91;101281.47;4923332;29;20370;-77
2023/05/24 07:04:41;;;;;;;7.75;1.67;;;;;;;12.41;81.08;101282.84;4939431;29;20056;-77
2023/05/24 07:07:07;;;;;;;8.38;1.65;;;;;;;12.43;82.06;101283.41;4935842;29;20089;-77
2023/05/24 07:09:33;;;;;;;8.98;1.52;;;;;;;12.48;80.40;101284.19;4938631;29;20091;-76
2023/05/24 07:11:58;;;;;;;9.27;1.83;;;;;;;12.54;81.92;101293.34;4907776;29;20036;-77
2023/05/24 07:14:26;;;;;;;5.53;1.50;;;;;;;12.61;77.13;101299.44;4922563;29;20036;-76
2023/05/24 07:16:53;;;;;;;6.93;1.40;;;;;;;12.74;76.20;101301.56;4938668;29;20028;-77
2023/05/24 07:19:20;;;;;;;6.55;1.58;;;;;;;12.78;72.63;101295.41;4935665;29;20063;-77
2023/05/24 07:21:46;;;;;;;3.05;1.10;;;;;;;12.86;73.32;101303.16;4916187;29;20020;-77
2023/05/24 07:24:11;;;;;;;4.57;1.30;;;;;;;12.92;74.27;101302.81;4938558;29;20028;-77
2023/05/24 07:26:37;;;;;;;6.28;1.30;;;;;;;13.00;72.27;101293.00;4920696;29;20036;-77
2023/05/24 07:29:02;;;;;;;7.47;1.35;;;;;;;13.08;71.79;101306.34;4923145;29;20468;-77
2023/05/24 07:31:31;;;;;;;8.75;1.65;;;;;;;13.25;72.06;101299.50;4923053;29;20028;-77
2023/05/24 07:33:56;;;;;;;3.30;1.20;;;;;;;13.35;71.88;101305.84;4907502;29;20035;-77
2023/05/24 07:36:24;;;;;;;5.45;1.23;;;;;;;13.39;66.94;101306.09;4922801;29;20035;-77
2023/05/24 07:38:49;;;;;;;4.50;1.23;;;;;;;13.47;64.84;101313.00;4939728;29;20095;-77
2023/05/24 07:41:15;;;;;;;4.30;1.27;;;;;;;13.60;63.18;101312.31;4923033;29;20031;-77
2023/05/24 07:43:40;;;;;;;4.25;1.20;;;;;;;13.67;65.06;101311.94;4922958;29;20028;-77
2023/05/24 07:46:06;;;;;;;3.78;1.00;;;;;;;13.85;65.53;101311.19;4935344;29;20028;-77
2023/05/24 07:48:31;;;;;;;3.60;1.02;;;;;;;13.96;61.94;101312.75;4903559;29;20036;-77
2023/05/24 07:50:57;;;;;;;4.70;1.05;;;;;;;14.02;61.71;101311.56;4938764;29;20042;-77
2023/05/24 07:53:22;;;;;;;6.05;1.15;;;;;;;14.14;59.87;101311.13;4939047;29;20036;-77
2023/05/24 07:55:48;;;;;;;3.22;0.98;;;;;;;14.17;56.83;101316.09;4906888;29;20040;-77
2023/05/24 07:58:13;;;;;;;4.13;1.15;;;;;;;14.30;59.53;101320.16;4938028;29;20058;-77
2023/05/24 08:00:39;;;;;;;3.55;1.10;;;;;;;14.39;57.50;101323.94;4919272;29;20237;-77
2023/05/24 08:03:05;;;;;;;3.65;1.33;;;;;;;14.50;60.46;101322.66;4935142;29;20036;-77
2023/05/24 08:05:30;;;;;;;3.58;1.25;;;;;;;14.61;59.09;101320.59;4916337;29;20020;-77
2023/05/24 08:07:56;;;;;;;5.63;1.40;;;;;;;14.69;59.83;101313.50;4939141;29;20036;-77
2023/05/24 08:10:22;;;;;;;5.53;1.08;;;;;;;14.81;59.34;101330.63;4921979;29;20036;-77
2023/05/24 08:12:50;;;;;;;5.10;1.30;;;;;;;14.91;57.64;101319.28;4934918;29;20043;-77
2023/05/24 08:15:15;;;;;;;5.30;1.33;;;;;;;15.04;57.25;101320.47;4906726;29;20039;-77
2023/05/24 08:17:41;;;;;;;3.75;1.30;;;;;;;15.16;56.02;101314.44;4922076;29;20034;-77
2023/05/24 08:20:08;;;;;;;2.47;1.10;;;;;;;15.28;55.40;101316.75;4937776;29;20036;-78
2023/05/24 08:22:34;;;;;;;3.95;1.23;;;;;;;15.40;55.91;101312.31;4906166;29;20497;-77
2023/05/24 08:24:59;;;;;;;4.78;1.40;;;;;;;15.62;55.79;101327.59;4937761;29;20058;-77
2023/05/24 08:27:27;;;;;;;6.43;1.20;;;;;;;15.72;54.08;101324.66;4937862;29;20086;-77
2023/05/24 08:29:53;;;;;;;4.57;1.00;;;;;;;15.93;55.51;101327.03;4922289;29;20036;-77
2023/05/24 08:32:19;;;;;;;5.18;1.10;;;;;;;16.10;53.51;101324.44;4939286;29;20079;-77
2023/05/24 08:34:44;;;;;;;5.38;1.00;;;;;;;16.25;52.93;101320.50;4922134;29;20031;-78
2023/05/24 08:37:10;;;;;;;5.40;1.20;;;;;;;16.42;51.73;101317.06;4934376;29;20418;-77
2023/05/24 08:39:35;;;;;;;2.78;1.10;;;;;;;16.50;50.28;101319.13;4938115;29;20035;-77
2023/05/24 08:42:02;;;;;;;3.50;1.13;;;;;;;16.66;50.34;101319.59;4921865;29;20024;-78
2023/05/24 08:44:28;;;;;;;3.45;1.15;;;;;;;16.81;48.67;101304.44;4939201;29;20107;-78
2023/05/24 08:46:53;;;;;;;3.13;0.80;;;;;;;16.98;49.11;101299.78;4937762;29;20469;-78
2023/05/24 08:49:20;;;;;;;3.88;1.10;;;;;;;17.06;50.14;101302.97;4921991;29;20111;-77
2023/05/24 08:51:45;;;;;;;3.15;0.90;;;;;;;17.12;48.26;101294.09;4937258;29;20031;-78
2023/05/24 08:54:12;;;;;;;2.58;1.02;;;;;;;17.28;48.51;101304.97;4920959;29;20039;-78
2023/05/24 08:56:38;;;;;;;4.45;1.10;;;;;;;17.35;47.54;101305.31;4937540;29;20110;-77
2023/05/24 08:59:04;;;;;;;3.63;1.13;;;;;;;17.53;48.42;101301.47;4918706;29;20032;-78
2023/05/24 09:01:30;;;;;;;4.10;1.30;;;;;;;17.58;47.94;101301.34;4938456;29;20046;-77
2023/05/24 09:03:56;;;;;;;3.72;0.90;;;;;;;17.73;46.17;101296.44;4921932;29;20043;-78
2023/05/24 09:06:21;;;;;;;3.58;1.17;;;;;;;17.78;44.47;101297.16;4906164;29;20035;-78
2023/05/24 09:08:51;;;;;;;4.78;1.17;;;;;;;17.81;46.62;101296.50;4905741;29;20512;-78
2023/05/24 09:11:17;;;;;;;2.80;1.00;;;;;;;17.84;43.30;101303.47;4937595;29;20032;-78
2023/05/24 09:13:44;;;;;;;3.35;1.27;;;;;;;17.96;43.25;101298.06;4919144;29;20473;-78
2023/05/24 09:16:09;;;;;;;2.08;0.80;;;;;;;18.03;44.62;101304.03;4938499;29;20067;-78
2023/05/24 09:18:35;;;;;;;3.63;1.35;;;;;;;18.04;42.62;101293.63;4921646;29;20039;-77
2023/05/24 09:21:00;;;;;;;3.47;1.30;;;;;;;18.03;41.37;101298.41;4937645;29;20024;-78
2023/05/24 09:23:26;;;;;;;3.45;1.20;;;;;;;18.09;42.08;101294.28;4938291;29;20079;-78
2023/05/24 09:25:51;;;;;;;5.57;1.33;;;;;;;18.17;42.06;101301.09;4918647;29;20036;-78
2023/05/24 09:28:17;;;;;;;3.58;1.40;;;;;;;18.28;41.41;101305.28;4932989;29;20036;-78
2023/05/24 09:30:43;;;;;;;4.78;1.15;;;;;;;18.30;42.10;101307.75;4921711;29;20115;-78
2023/05/24 09:33:09;;;;;;;2.92;0.93;;;;;;;18.29;39.78;101306.91;4906078;29;20059;-78
2023/05/24 09:35:35;;;;;;;3.47;1.13;;;;;;;18.23;39.16;101313.84;4938345;29;20032;-78
2023/05/24 09:38:02;;;;;;;4.15;1.27;;;;;;;18.37;39.43;101310.91;4924553;29;20500;-78
2023/05/24 09:40:28;;;;;;;4.95;1.02;;;;;;;18.50;40.06;101304.31;4909293;29;20511;-78
2023/05/24 09:43:08;;;;;;;3.78;1.10;;;;;;;18.48;39.68;101315.06;4922061;29;20426;-78
2023/05/24 09:45:41;;;;;;;3.30;1.30;;;;;;;18.62;39.74;101312.13;4909387;29;20108;-78
2023/05/24 09:48:09;;;;;;;3.15;1.08;;;;;;;18.67;39.06;101299.88;4941956;29;20607;-79
2023/05/24 09:50:35;;;;;;;4.47;1.05;;;;;;;18.69;39.86;101301.22;4940560;29;20031;-78
2023/05/24 09:53:01;;;;;;;3.55;1.30;;;;;;;18.81;38.77;101300.56;4924239;29;20032;-78
2023/05/24 09:55:27;;;;;;;3.38;1.20;;;;;;;18.89;38.68;101291.31;4941742;29;20035;-78
2023/05/24 09:58:10;;;;;;;2.00;1.00;;;;;;;18.94;38.79;101288.34;4921460;29;20059;-78
2023/05/24 10:00:38;;;;;;;3.42;1.00;;;;;;;18.94;38.54;101293.97;4922523;29;20032;-77
2023/05/24 10:03:08;;;;;;;6.13;1.30;;;;;;;19.09;39.01;101280.53;4917705;29;20040;-77
2023/05/24 10:05:34;;;;;;;3.25;1.17;;;;;;;19.16;39.44;101283.66;4929077;29;20028;-77
2023/05/24 10:07:59;;;;;;;3.22;0.98;;;;;;;19.24;38.91;101284.81;4908436;29;20091;-77
2023/05/24 10:10:29;;;;;;;2.80;0.95;;;;;;;19.38;39.70;101289.06;4937130;29;20032;-78
2023/05/24 10:12:55;;;;;;;3.28;1.08;;;;;;;19.45;38.43;101284.94;4924891;29;20036;-77
2023/05/24 10:15:21;;;;;;;1.95;1.13;;;;;;;19.50;39.27;101293.19;4890593;29;20024;-78
2023/05/24 10:17:46;;;;;;;3.83;1.20;;;;;;;19.60;37.58;101288.03;4936848;29;20088;-77
2023/05/24 10:20:12;;;;;;;3.60;1.20;;;;;;;19.68;36.93;101282.72;4918222;29;20032;-78
2023/05/24 10:22:40;;;;;;;2.00;1.10;;;;;;;19.64;35.74;101289.00;4936456;29;20032;-77
2023/05/24 10:25:07;;;;;;;2.38;1.30;;;;;;;19.57;34.68;101294.31;4935350;29;20033;-77
2023/05/24 10:27:32;;;;;;;3.95;1.30;;;;;;;19.49;33.73;101297.16;4921124;29;20047;-77
2023/05/24 10:30:09;;;;;;;2.85;1.30;;;;;;;19.51;35.07;101286.41;4910063;29;20394;-77
2023/05/24 10:32:35;;;;;;;3.00;1.10;;;;;;;19.62;35.38;101287.69;4919781;29;20024;-78
2023/05/24 10:35:02;;;;;;;2.33;1.30;;;;;;;19.53;34.67;101293.34;4936213;29;20032;-77
2023/05/24 10:37:27;;;;;;;2.97;1.42;;;;;;;19.63;35.38;101286.53;4936588;29;20039;-78
2023/05/24 10:39:52;;;;;;;3.72;1.27;;;;;;;19.71;35.30;101293.31;4920428;29;20032;-77
2023/05/24 10:42:18;;;;;;;2.90;1.38;;;;;;;19.64;34.80;101299.47;4936512;29;20034;-77
2023/05/24 10:44:44;;;;;;;2.30;1.30;;;;;;;19.73;34.43;101279.75;4935991;29;20385;-77
2023/05/24 10:47:09;;;;;;;2.65;1.23;;;;;;;19.73;33.94;101291.00;4936075;29;20071;-77
2023/05/24 10:49:46;;;;;;;2.35;1.20;;;;;;;19.69;33.16;101275.91;4920395;29;20115;-77
2023/05/24 10:52:12;;;;;;;3.88;1.30;;;;;;;19.71;34.81;101288.50;4922144;29;20044;-77
2023/05/24 10:54:38;;;;;;;2.60;1.02;;;;;;;19.83;35.56;101280.16;4904253;29;20121;-77
2023/05/24 10:57:03;;;;;;;2.17;1.10;;;;;;;19.84;35.56;101278.19;4932990;28;20060;-77
2023/05/24 10:59:36;;;;;;;2.78;1.20;;;;;;;19.97;35.32;101293.22;4904445;29;20043;-77
2023/05/24 11:02:02;;;;;;;3.45;1.38;;;;;;;20.03;34.96;101281.41;4920140;29;20032;-77
2023/05/24 11:04:38;;;;;;;3.28;1.25;;;;;;;20.06;35.59;101277.91;4912521;29;20598;-77
2023/05/24 11:07:05;;;;;;;3.35;1.30;;;;;;;20.14;35.55;101276.19;4919231;29;20040;-78
2023/05/24 11:09:31;;;;;;;2.90;1.20;;;;;;;20.20;35.33;101288.94;4932942;29;20032;-77
2023/05/24 11:12:07;;;;;;;3.72;1.40;;;;;;;20.14;33.25;101283.81;4935501;29;20082;-77
2023/05/24 11:14:39;;;;;;;2.78;1.17;;;;;;;20.23;34.52;101287.44;4916713;29;20036;-78
2023/05/24 11:17:08;;;;;;;1.92;1.20;;;;;;;20.24;33.95;101284.28;4920022;29;20039;-77
2023/05/24 11:19:35;;;;;;;1.77;1.17;;;;;;;20.26;34.31;101292.41;4935644;29;20024;-77